Time;durP1;ratioP1;P1;durP2;ratioP2;P2;SDS_P1;SDS_P2;PMS_P1;PMS_P2;Temp;Humidity;BMP_temperature;BMP_pressure;BME280_temperature;BME280_humidity;BME280_pressure;Samples;Min_cycle;Max_cycle;Signal;HPM_P1;HPM_P2
2022/05/09 00:03:47;;;;;;;6.60;1.52;;;15.10;72.30;;;;;;10323238;28;20058;-56
2022/05/09 00:08:48;;;;;;;6.05;1.98;;;15.10;72.40;;;;;;10323507;28;20034;-68
2022/05/09 00:13:49;;;;;;;4.30;1.55;;;15.00;72.40;;;;;;10326509;28;20121;-67
2022/05/09 00:18:50;;;;;;;6.90;1.75;;;15.00;72.50;;;;;;10327731;28;20046;-57
2022/05/09 00:23:51;;;;;;;6.15;1.73;;;15.00;72.50;;;;;;10325773;28;20437;-61
2022/05/09 00:28:52;;;;;;;4.00;1.33;;;14.90;73.00;;;;;;10329717;28;20038;-57
2022/05/09 00:33:53;;;;;;;8.73;1.80;;;14.90;72.50;;;;;;10334759;28;20026;-67
2022/05/09 00:38:53;;;;;;;5.70;1.63;;;14.80;72.50;;;;;;10322236;28;20031;-57
2022/05/09 00:43:55;;;;;;;6.43;1.77;;;14.80;72.50;;;;;;10325808;28;20034;-58
2022/05/09 00:49:15;;;;;;;5.18;1.83;;;14.80;73.20;;;;;;10322425;28;20026;-65
2022/05/09 00:54:16;;;;;;;7.45;1.98;;;14.70;72.50;;;;;;10325919;28;20029;-57
2022/05/09 00:59:19;;;;;;;8.93;2.33;;;14.70;72.50;;;;;;10339769;28;20026;-62
2022/05/09 01:04:24;;;;;;;10.02;1.90;;;14.70;72.60;;;;;;10321505;28;20076;-64
2022/05/09 01:09:26;;;;;;;8.43;1.88;;;14.70;72.60;;;;;;10323243;28;20087;-56
2022/05/09 01:14:32;;;;;;;4.90;2.00;;;14.60;72.60;;;;;;10321269;28;20034;-68
2022/05/09 01:19:42;;;;;;;4.97;1.45;;;14.60;72.60;;;;;;10327494;28;20025;-56
2022/05/09 01:24:43;;;;;;;7.40;1.70;;;14.50;72.60;;;;;;10323646;28;20034;-57
2022/05/09 01:29:57;;;;;;;6.45;2.03;;;14.50;72.60;;;;;;10327488;28;20037;-59
2022/05/09 01:35:24;;;;;;;6.10;2.17;;;14.50;72.60;;;;;;10321109;28;20030;-56
2022/05/09 01:40:24;;;;;;;4.65;1.48;;;14.40;72.50;;;;;;10321027;28;20106;-56
2022/05/09 01:45:25;;;;;;;3.40;1.63;;;14.40;72.60;;;;;;10320220;28;20044;-65
2022/05/09 01:50:26;;;;;;;4.82;2.47;;;14.40;72.60;;;;;;10320728;28;20510;-68
2022/05/09 01:55:26;;;;;;;7.88;2.13;;;14.30;72.60;;;;;;10324791;28;20034;-69
2022/05/09 02:00:28;;;;;;;3.38;1.60;;;14.30;72.60;;;;;;10339985;28;20104;-61
2022/05/09 02:05:29;;;;;;;1.85;1.40;;;14.30;72.70;;;;;;10319744;28;20053;-69
2022/05/09 02:10:29;;;;;;;5.32;1.80;;;14.30;72.70;;;;;;10319838;28;20053;-56
2022/05/09 02:15:31;;;;;;;6.00;2.05;;;14.20;72.70;;;;;;10318817;28;20039;-71
2022/05/09 02:20:32;;;;;;;11.65;1.88;;;14.20;72.70;;;;;;10325148;28;20042;-71
2022/05/09 02:25:33;;;;;;;5.22;1.35;;;14.20;72.70;;;;;;10321990;28;20201;-56
2022/05/09 02:30:35;;;;;;;5.10;1.70;;;14.10;72.60;;;;;;10325896;28;20034;-56
2022/05/09 02:35:38;;;;;;;8.30;2.17;;;14.10;72.60;;;;;;10318891;28;20072;-57
2022/05/09 02:40:40;;;;;;;6.82;1.80;;;14.10;72.70;;;;;;10312739;28;20520;-57
2022/05/09 02:45:40;;;;;;;4.07;2.17;;;14.00;72.60;;;;;;10318550;28;20563;-57
2022/05/09 02:50:41;;;;;;;6.10;2.13;;;14.00;72.60;;;;;;10318659;28;20018;-56
2022/05/09 02:55:42;;;;;;;4.10;1.45;;;14.00;72.70;;;;;;10322022;28;20050;-57
2022/05/09 03:00:42;;;;;;;8.68;2.97;;;14.00;72.60;;;;;;10332031;28;20030;-69
2022/05/09 03:05:45;;;;;;;7.32;1.77;;;13.90;72.60;;;;;;10317768;28;20468;-57
2022/05/09 03:10:46;;;;;;;6.25;1.70;;;13.90;72.70;;;;;;10317793;28;20035;-67
2022/05/09 03:15:48;;;;;;;3.20;1.60;;;13.90;72.70;;;;;;10317524;28;20034;-57
2022/05/09 03:20:49;;;;;;;3.67;2.05;;;13.80;72.70;;;;;;10323900;28;20483;-57
2022/05/09 03:25:50;;;;;;;5.53;1.70;;;13.80;72.70;;;;;;10321271;28;20035;-56
2022/05/09 03:30:52;;;;;;;7.15;1.60;;;13.80;72.70;;;;;;10331137;28;20019;-56
2022/05/09 03:35:54;;;;;;;3.92;1.60;;;13.80;72.80;;;;;;10324103;28;20250;-65
2022/05/09 03:40:55;;;;;;;4.50;1.50;;;13.70;72.70;;;;;;10324466;28;20018;-57
2022/05/09 03:45:58;;;;;;;5.30;2.05;;;13.70;72.70;;;;;;10324062;28;20501;-68
2022/05/09 03:51:01;;;;;;;6.07;1.80;;;13.70;72.80;;;;;;10323844;28;20046;-61
2022/05/09 03:56:02;;;;;;;5.15;1.80;;;13.70;72.70;;;;;;10327314;28;20121;-57
2022/05/09 04:01:03;;;;;;;9.20;1.75;;;13.60;72.70;;;;;;10338456;28;20030;-57
2022/05/09 04:06:04;;;;;;;6.22;2.92;;;13.60;72.80;;;;;;10323267;28;20064;-67
2022/05/09 04:11:05;;;;;;;4.35;2.35;;;13.60;72.80;;;;;;10323293;28;20039;-67
2022/05/09 04:21:26;;;;;;;5.53;2.05;;;13.60;72.80;;;;;;10332893;28;20029;-57
2022/05/09 04:26:29;;;;;;;4.25;1.90;;;13.50;72.70;;;;;;10322850;28;20133;-57
2022/05/09 04:31:30;;;;;;;6.78;1.73;;;13.50;72.70;;;;;;10330183;28;20031;-61
2022/05/09 04:36:32;;;;;;;6.10;2.03;;;13.50;72.70;;;;;;10322181;28;20402;-56
2022/05/09 04:41:33;;;;;;;6.28;1.90;;;13.50;73.30;;;;;;10323846;28;20057;-56
2022/05/09 04:46:34;;;;;;;7.85;2.17;;;13.50;72.70;;;;;;10322066;28;20034;-66
2022/05/09 04:51:34;;;;;;;8.65;2.08;;;13.50;72.70;;;;;;10322518;28;20018;-56
2022/05/09 04:56:35;;;;;;;3.10;1.67;;;13.40;72.70;;;;;;10327768;28;20042;-56
2022/05/09 05:01:35;;;;;;;6.05;1.85;;;13.40;72.60;;;;;;10341701;28;20027;-61
2022/05/09 05:06:36;;;;;;;6.53;1.85;;;13.40;72.70;;;;;;10321817;28;20092;-65
2022/05/09 05:11:37;;;;;;;4.30;1.83;;;13.40;72.70;;;;;;10321699;28;20030;-56
2022/05/09 05:21:59;;;;;;;5.15;1.92;;;13.40;72.70;;;;;;10327351;28;20071;-63
2022/05/09 05:27:00;;;;;;;6.03;1.80;;;13.40;72.60;;;;;;10321069;28;20466;-65
2022/05/09 05:32:12;;;;;;;4.78;2.10;;;13.40;72.70;;;;;;10328016;28;20023;-57
2022/05/09 05:37:12;;;;;;;5.25;2.17;;;13.40;72.60;;;;;;10320606;28;20033;-57
2022/05/09 05:42:17;;;;;;;6.07;2.38;;;13.40;72.60;;;;;;10322091;28;20058;-57
2022/05/09 05:47:20;;;;;;;5.18;1.77;;;13.40;72.60;;;;;;10319271;28;20069;-62
2022/05/09 05:52:21;;;;;;;6.20;2.10;;;13.40;72.70;;;;;;10320406;28;20069;-69
2022/05/09 05:57:25;;;;;;;4.63;2.00;;;13.40;72.70;;;;;;10318743;28;20030;-68
2022/05/09 06:02:27;;;;;;;5.70;2.13;;;13.40;72.70;;;;;;10337154;28;20087;-57
2022/05/09 06:07:28;;;;;;;9.95;2.25;;;13.40;72.80;;;;;;10319866;28;20382;-58
2022/05/09 06:12:28;;;;;;;4.22;2.38;;;13.40;72.80;;;;;;10319672;28;20033;-56
2022/05/09 06:17:29;;;;;;;4.22;2.38;;;13.40;72.80;;;;;;10322072;28;20107;-57
2022/05/09 06:22:30;;;;;;;6.38;2.40;;;13.40;73.50;;;;;;10321384;28;20122;-58
2022/05/09 06:27:31;;;;;;;6.70;2.17;;;13.40;72.80;;;;;;10319421;28;20486;-62
2022/05/09 06:32:32;;;;;;;6.15;2.42;;;13.40;72.90;;;;;;10325662;28;20516;-59
2022/05/09 06:37:33;;;;;;;4.70;2.05;;;13.40;72.90;;;;;;10319606;28;20110;-57
2022/05/09 06:42:35;;;;;;;6.03;2.05;;;13.50;73.00;;;;;;10319608;28;20106;-67
2022/05/09 06:47:50;;;;;;;4.25;2.10;;;13.50;73.00;;;;;;10318838;28;20022;-61
2022/05/09 06:52:51;;;;;;;4.38;2.40;;;13.50;73.10;;;;;;10321326;28;20421;-71
2022/05/09 06:57:52;;;;;;;7.45;2.10;;;13.50;73.00;;;;;;10321982;28;20117;-61
2022/05/09 07:02:53;;;;;;;6.03;2.30;;;13.60;73.10;;;;;;10330218;28;20055;-64
2022/05/09 07:07:54;;;;;;;5.90;1.80;;;13.60;73.00;;;;;;10317836;28;20022;-61
2022/05/09 07:12:56;;;;;;;6.25;1.85;;;13.60;73.00;;;;;;10308857;28;20510;-73
2022/05/09 07:17:58;;;;;;;4.75;1.95;;;13.60;73.00;;;;;;10301641;28;20022;-58
2022/05/09 07:23:09;;;;;;;6.13;1.65;;;13.70;73.00;;;;;;10292491;28;20034;-70
2022/05/09 07:28:12;;;;;;;4.47;1.70;;;13.70;73.10;;;;;;10296448;28;20018;-61
2022/05/09 07:33:15;;;;;;;6.00;1.70;;;13.80;73.10;;;;;;10363760;28;20034;-70
2022/05/09 07:38:17;;;;;;;3.90;2.30;;;13.80;73.00;;;;;;10364395;28;20022;-66
2022/05/09 07:43:21;;;;;;;4.15;1.58;;;13.80;73.00;;;;;;10364023;28;20052;-69
2022/05/09 07:48:23;;;;;;;3.85;1.80;;;13.90;73.00;;;;;;10363639;28;20025;-57
2022/05/09 07:53:30;;;;;;;2.95;1.48;;;13.90;72.90;;;;;;10363603;28;20025;-67
2022/05/09 07:58:32;;;;;;;3.72;1.63;;;14.00;73.00;;;;;;10363657;28;20029;-69
2022/05/09 08:03:34;;;;;;;6.55;2.00;;;14.00;73.20;;;;;;10363380;28;20107;-68
2022/05/09 08:08:40;;;;;;;6.97;1.80;;;14.10;73.10;;;;;;10362606;28;20018;-67
2022/05/09 08:13:42;;;;;;;5.25;2.17;;;14.10;73.10;;;;;;10369501;28;20561;-66
2022/05/09 08:18:42;;;;;;;4.00;1.92;;;14.20;73.20;;;;;;10369910;28;20030;-62
2022/05/09 08:23:43;;;;;;;4.63;1.80;;;14.20;73.20;;;;;;10369875;28;20046;-61
2022/05/09 08:28:44;;;;;;;4.70;2.05;;;14.30;73.20;;;;;;10369560;28;20472;-65
2022/05/09 08:33:47;;;;;;;5.20;1.60;;;14.30;73.20;;;;;;10370016;28;20030;-59
2022/05/09 08:38:49;;;;;;;4.85;1.88;;;14.40;73.20;;;;;;10370099;28;20109;-70
2022/05/09 08:44:10;;;;;;;5.85;2.90;;;14.40;73.10;;;;;;10369585;28;20119;-65
2022/05/09 08:49:25;;;;;;;8.50;3.28;;;14.60;73.70;;;;;;10369369;28;20026;-65
2022/05/09 08:54:26;;;;;;;5.25;2.88;;;14.80;72.40;;;;;;10351651;28;20028;-65
2022/05/09 08:59:33;;;;;;;10.63;3.42;;;15.00;71.70;;;;;;10369033;28;20017;-70
2022/05/09 09:04:36;;;;;;;9.88;3.20;;;15.20;70.80;;;;;;10368545;28;20046;-69
2022/05/09 09:09:51;;;;;;;7.15;3.00;;;15.40;70.40;;;;;;10368587;28;20117;-70
2022/05/09 09:15:05;;;;;;;9.40;2.45;;;15.40;69.20;;;;;;10368463;28;20030;-69
2022/05/09 09:20:34;;;;;;;11.55;2.55;;;15.50;68.90;;;;;;10368046;28;20094;-65
2022/05/09 09:25:44;;;;;;;7.07;2.50;;;15.70;67.30;;;;;;10367803;28;20044;-62
2022/05/09 09:30:46;;;;;;;7.50;2.22;;;15.80;67.60;;;;;;10368160;28;20032;-73
2022/05/09 09:36:05;;;;;;;8.80;2.03;;;16.00;66.50;;;;;;10368073;28;20083;-69
2022/05/09 09:41:42;;;;;;;7.15;2.17;;;16.10;65.90;;;;;;10367516;28;20354;-70
2022/05/09 09:47:03;;;;;;;5.93;2.33;;;16.10;65.20;;;;;;10301462;28;20128;-68
2022/05/09 09:52:21;;;;;;;5.45;2.40;;;16.20;66.50;;;;;;10367154;28;20029;-62
2022/05/09 09:57:32;;;;;;;8.73;2.35;;;16.40;66.30;;;;;;10366466;28;20109;-63
2022/05/09 10:02:32;;;;;;;8.75;2.38;;;16.50;66.00;;;;;;10365995;28;20053;-63
2022/05/09 10:07:34;;;;;;;5.63;2.20;;;16.60;66.20;;;;;;10366404;28;20026;-67
2022/05/09 10:12:36;;;;;;;5.97;2.00;;;16.70;65.80;;;;;;10366008;28;20037;-71
2022/05/09 10:17:37;;;;;;;9.88;2.58;;;16.70;65.60;;;;;;10366420;28;20038;-68
2022/05/09 10:28:19;;;;;;;7.68;2.15;;;16.90;65.00;;;;;;10366158;28;20478;-69
2022/05/09 10:33:38;;;;;;;5.95;2.65;;;17.00;63.90;;;;;;10365623;28;20099;-64
2022/05/09 10:39:17;;;;;;;10.75;3.22;;;17.10;64.50;;;;;;10365760;28;20041;-70
2022/05/09 10:44:28;;;;;;;5.57;2.42;;;17.30;64.60;;;;;;10364093;28;20046;-66
2022/05/09 10:49:43;;;;;;;4.13;1.77;;;17.40;64.50;;;;;;10365463;28;20090;-64
2022/05/09 10:55:17;;;;;;;6.53;2.00;;;17.60;64.10;;;;;;10365349;28;20462;-74
2022/05/09 11:00:24;;;;;;;8.73;2.10;;;17.50;63.80;;;;;;10351450;28;20540;-65
2022/05/09 11:05:28;;;;;;;5.18;2.40;;;17.80;64.20;;;;;;10364865;28;20046;-67
2022/05/09 11:10:40;;;;;;;7.43;2.42;;;17.90;63.60;;;;;;10364443;28;20025;-67
2022/05/09 11:16:00;;;;;;;4.50;2.22;;;17.90;63.30;;;;;;10347023;28;20050;-67
2022/05/09 11:21:26;;;;;;;9.43;2.33;;;18.00;63.60;;;;;;10364645;28;20036;-63
2022/05/09 11:26:41;;;;;;;6.47;3.00;;;18.10;63.30;;;;;;10364235;28;20038;-69
2022/05/09 11:32:09;;;;;;;6.03;2.65;;;18.30;62.70;;;;;;10364308;28;20050;-64
2022/05/09 11:37:24;;;;;;;6.40;2.53;;;18.40;63.00;;;;;;10364082;28;20040;-60
2022/05/09 11:48:20;;;;;;;7.40;2.90;;;18.80;63.20;;;;;;10369120;28;20119;-70
2022/05/09 11:53:27;;;;;;;9.57;3.25;;;19.00;62.80;;;;;;10370852;28;20105;-60
2022/05/09 11:58:29;;;;;;;11.90;3.10;;;19.20;62.80;;;;;;10370820;28;20155;-62
2022/05/09 12:03:52;;;;;;;6.35;2.40;;;19.30;63.00;;;;;;10370101;28;20053;-60
2022/05/09 12:08:53;;;;;;;6.57;2.10;;;19.60;62.10;;;;;;10370316;28;20474;-71
2022/05/09 12:13:57;;;;;;;6.55;2.22;;;19.80;61.90;;;;;;10370361;28;20036;-68
2022/05/09 12:19:03;;;;;;;4.35;2.17;;;19.90;61.30;;;;;;10369645;28;20549;-69
2022/05/09 12:24:16;;;;;;;3.42;2.00;;;20.00;60.80;;;;;;10369545;28;20120;-66
2022/05/09 12:29:17;;;;;;;8.38;2.42;;;20.20;60.50;;;;;;10369447;28;20128;-68
2022/05/09 12:34:23;;;;;;;7.45;2.08;;;20.20;60.80;;;;;;10369494;28;20030;-69
2022/05/09 12:39:36;;;;;;;9.35;2.33;;;20.30;60.50;;;;;;10369230;28;20014;-68
2022/05/09 12:44:45;;;;;;;6.25;2.35;;;20.40;59.50;;;;;;10369121;28;20416;-68
2022/05/09 12:49:50;;;;;;;5.50;2.40;;;20.60;59.60;;;;;;10351252;28;20079;-67
2022/05/09 13:00:14;;;;;;;11.07;3.88;;;20.70;59.80;;;;;;10368457;28;20104;-68
2022/05/09 13:05:17;;;;;;;8.13;2.33;;;20.80;60.10;;;;;;10368119;28;20648;-69
2022/05/09 13:10:17;;;;;;;10.85;2.50;;;21.10;59.50;;;;;;10368310;28;20076;-66
2022/05/09 13:15:20;;;;;;;9.40;2.90;;;21.20;59.20;;;;;;10367915;28;20058;-66
2022/05/09 13:20:22;;;;;;;6.40;2.65;;;21.50;58.80;;;;;;10367803;28;20026;-64
2022/05/09 13:25:31;;;;;;;7.13;2.97;;;21.50;58.60;;;;;;10367750;28;20486;-65
2022/05/09 13:30:34;;;;;;;9.40;2.80;;;21.70;58.00;;;;;;10367389;28;20387;-66
2022/05/09 13:35:37;;;;;;;9.57;3.10;;;21.90;58.40;;;;;;10367380;28;20025;-62
2022/05/09 13:40:38;;;;;;;6.25;2.40;;;22.00;58.10;;;;;;10367465;28;20107;-70
2022/05/09 13:45:40;;;;;;;4.43;2.20;;;22.20;57.70;;;;;;10366813;28;20158;-69
2022/05/09 13:50:44;;;;;;;5.78;2.08;;;22.40;57.30;;;;;;10349644;28;20030;-63
2022/05/09 13:55:45;;;;;;;7.78;2.45;;;22.50;57.00;;;;;;10366554;28;20050;-70
2022/05/09 14:00:49;;;;;;;6.78;2.55;;;22.60;56.70;;;;;;10366581;28;20022;-67
2022/05/09 14:05:52;;;;;;;4.70;2.25;;;22.80;56.90;;;;;;10366283;28;20050;-63
2022/05/09 14:11:09;;;;;;;5.72;1.95;;;22.90;56.60;;;;;;10365723;28;20541;-62
2022/05/09 14:16:31;;;;;;;4.65;1.52;;;23.00;55.40;;;;;;10366467;28;20520;-61
2022/05/09 14:21:45;;;;;;;4.38;1.70;;;23.20;54.70;;;;;;10348541;28;20113;-71
2022/05/09 14:32:33;;;;;;;7.35;1.75;;;23.30;54.70;;;;;;10365889;28;20029;-62
2022/05/09 14:37:46;;;;;;;3.53;1.58;;;23.50;54.70;;;;;;10358171;28;20034;-69
2022/05/09 14:42:55;;;;;;;5.25;1.45;;;23.60;54.40;;;;;;10365354;28;20052;-63
2022/05/09 14:48:18;;;;;;;4.68;1.30;;;23.70;53.70;;;;;;10365567;28;20045;-65
2022/05/09 14:53:20;;;;;;;3.15;1.50;;;23.70;52.30;;;;;;10365278;28;20078;-65
2022/05/09 14:58:35;;;;;;;4.90;1.98;;;23.80;53.50;;;;;;10364906;28;20036;-65
2022/05/09 15:03:37;;;;;;;5.65;1.50;;;23.90;52.40;;;;;;10364861;28;20054;-63
2022/05/09 15:08:38;;;;;;;4.32;1.60;;;24.00;53.80;;;;;;10365189;28;20030;-69
2022/05/09 15:13:38;;;;;;;4.03;1.67;;;24.10;53.30;;;;;;10364760;28;20062;-64
2022/05/09 15:18:39;;;;;;;3.30;1.63;;;24.20;53.40;;;;;;10365315;28;20014;-61
2022/05/09 15:23:41;;;;;;;5.25;1.40;;;24.30;53.20;;;;;;10371713;28;20037;-60
2022/05/09 15:28:42;;;;;;;4.57;1.80;;;24.30;53.10;;;;;;10371714;28;20033;-60
2022/05/09 15:33:43;;;;;;;7.68;1.73;;;24.40;52.90;;;;;;10371519;28;20022;-60
2022/05/09 15:38:43;;;;;;;3.60;1.88;;;24.40;52.60;;;;;;10371407;28;20036;-66
2022/05/09 15:43:47;;;;;;;2.30;1.20;;;24.40;52.30;;;;;;10371170;28;20091;-63
2022/05/09 15:48:48;;;;;;;5.60;1.88;;;24.30;51.90;;;;;;10371278;28;20049;-61
2022/05/09 15:53:51;;;;;;;4.90;1.77;;;24.20;52.60;;;;;;10371180;28;20109;-61
2022/05/09 15:58:53;;;;;;;5.15;2.20;;;24.00;52.30;;;;;;10370945;28;20037;-63
2022/05/09 16:03:54;;;;;;;3.25;1.92;;;23.80;52.50;;;;;;10370662;28;20046;-62
2022/05/09 16:14:16;;;;;;;6.72;1.88;;;23.30;53.40;;;;;;10370494;28;20026;-70
2022/05/09 16:19:23;;;;;;;6.03;2.10;;;23.00;53.50;;;;;;10353375;28;20081;-65
2022/05/09 16:24:25;;;;;;;9.10;2.20;;;22.80;53.90;;;;;;10369699;28;20037;-64
2022/05/09 16:29:26;;;;;;;3.47;1.70;;;22.60;54.40;;;;;;10369955;28;20033;-61
2022/05/09 16:34:33;;;;;;;9.20;2.30;;;22.50;54.40;;;;;;10368995;28;20037;-65
2022/05/09 16:39:45;;;;;;;6.30;1.63;;;22.40;54.80;;;;;;10369258;28;20021;-67
2022/05/09 16:44:58;;;;;;;4.18;1.63;;;22.30;55.90;;;;;;10369371;28;20042;-66
2022/05/09 16:49:59;;;;;;;6.38;2.08;;;22.20;56.20;;;;;;10368908;28;20430;-66
2022/05/09 16:55:01;;;;;;;3.72;1.70;;;22.10;56.30;;;;;;10369000;28;20167;-62
2022/05/09 17:00:04;;;;;;;5.60;2.28;;;22.10;56.00;;;;;;10368833;28;20029;-62
2022/05/09 17:05:05;;;;;;;5.95;2.20;;;22.00;56.10;;;;;;10368305;28;20452;-66
2022/05/09 17:10:09;;;;;;;9.80;2.30;;;22.00;56.40;;;;;;10368346;28;20049;-62
2022/05/09 17:15:27;;;;;;;7.63;2.53;;;21.90;56.60;;;;;;10368461;28;20386;-61
2022/05/09 17:20:29;;;;;;;;;;;21.70;56.50;;;;;;10368632;28;20026;-68
2022/05/09 17:25:36;;;;;;;6.30;1.92;;;21.60;56.40;;;;;;10367893;28;19920;-63
2022/05/09 17:30:37;;;;;;;6.25;2.20;;;21.40;57.20;;;;;;10367935;28;20022;-64
2022/05/09 17:41:01;;;;;;;5.07;2.00;;;21.20;57.50;;;;;;10367898;28;20054;-69
2022/05/09 17:46:03;;;;;;;5.70;2.20;;;21.00;57.70;;;;;;10366200;28;20040;-64
2022/05/09 17:51:04;;;;;;;7.88;2.40;;;20.90;58.10;;;;;;10367604;28;20393;-68
2022/05/09 17:56:05;;;;;;;4.97;2.35;;;20.70;58.20;;;;;;10366985;28;20041;-73
2022/05/09 18:01:10;;;;;;;11.90;3.05;;;20.60;58.50;;;;;;10366938;28;20026;-70
2022/05/09 18:06:11;;;;;;;3.60;1.90;;;20.50;59.00;;;;;;10366175;28;20424;-64
2022/05/09 18:11:15;;;;;;;9.23;2.42;;;20.30;59.20;;;;;;10366721;28;20026;-61
2022/05/09 18:16:18;;;;;;;8.63;2.28;;;20.20;59.40;;;;;;10366216;28;20111;-69
2022/05/09 18:21:24;;;;;;;6.70;2.05;;;20.10;59.60;;;;;;10366828;28;20034;-70
2022/05/09 18:26:25;;;;;;;4.85;2.00;;;20.00;59.90;;;;;;10366577;28;20122;-72
2022/05/09 18:31:32;;;;;;;5.85;2.00;;;19.90;60.00;;;;;;10365486;28;20052;-74
2022/05/09 18:36:33;;;;;;;8.30;2.35;;;19.80;60.10;;;;;;10365937;28;20038;-68
2022/05/09 18:41:35;;;;;;;6.30;2.20;;;19.60;60.40;;;;;;10366027;28;20044;-64
2022/05/09 18:46:38;;;;;;;3.60;1.90;;;19.60;61.10;;;;;;10365442;28;20147;-59
2022/05/09 18:57:04;;;;;;;3.80;1.95;;;19.80;61.50;;;;;;10365231;28;20163;-65
2022/05/09 19:02:05;;;;;;;3.08;1.75;;;19.90;61.40;;;;;;10365750;28;20538;-64
2022/05/09 19:07:10;;;;;;;3.80;1.60;;;20.00;61.50;;;;;;10365127;28;20066;-64
2022/05/09 19:12:11;;;;;;;2.60;1.65;;;20.10;61.80;;;;;;10365242;28;20105;-58
2022/05/09 19:17:12;;;;;;;7.05;2.00;;;20.10;61.90;;;;;;10364902;28;20057;-63
2022/05/09 19:22:13;;;;;;;5.03;1.90;;;20.10;62.00;;;;;;10364868;28;20049;-62
2022/05/09 19:27:15;;;;;;;4.95;1.90;;;20.10;62.20;;;;;;10364691;28;20034;-65
2022/05/09 19:32:23;;;;;;;4.88;2.17;;;20.10;62.40;;;;;;10364602;28;20033;-66
2022/05/09 19:37:24;;;;;;;3.42;1.75;;;20.00;63.20;;;;;;10364633;28;20030;-60
2022/05/09 19:42:25;;;;;;;4.07;1.60;;;20.00;62.80;;;;;;10364142;28;20037;-58
2022/05/09 19:47:32;;;;;;;2.63;1.65;;;20.00;62.90;;;;;;10364098;28;20030;-58
2022/05/09 19:57:52;;;;;;;3.58;1.73;;;19.90;63.30;;;;;;10364062;28;20074;-65
2022/05/09 20:02:52;;;;;;;2.83;1.80;;;19.90;63.60;;;;;;10363459;28;20026;-57
2022/05/09 20:07:53;;;;;;;4.80;1.92;;;19.80;63.70;;;;;;10366752;28;20070;-61
2022/05/09 20:12:54;;;;;;;4.80;1.80;;;19.80;63.90;;;;;;10370490;28;20037;-57
2022/05/09 20:17:55;;;;;;;3.30;1.92;;;19.80;64.10;;;;;;10370299;28;20506;-60
2022/05/09 20:22:55;;;;;;;5.15;2.00;;;19.70;64.10;;;;;;10370270;28;20041;-58
2022/05/09 20:33:15;;;;;;;8.48;2.13;;;19.70;64.40;;;;;;10370100;28;20054;-63
2022/05/09 20:38:16;;;;;;;5.53;2.00;;;19.60;64.40;;;;;;10369746;28;20062;-61
2022/05/09 20:43:17;;;;;;;5.32;2.10;;;19.60;64.50;;;;;;10369362;28;20451;-63
2022/05/09 20:48:18;;;;;;;3.90;2.58;;;19.50;64.60;;;;;;10369410;28;20037;-62
2022/05/09 20:53:25;;;;;;;5.72;2.50;;;19.50;64.60;;;;;;10369314;28;20474;-59
2022/05/09 20:58:27;;;;;;;4.00;2.17;;;19.40;64.70;;;;;;10369132;28;20026;-57
2022/05/09 21:03:28;;;;;;;4.65;2.20;;;19.40;64.80;;;;;;10368761;28;20529;-61
2022/05/09 21:08:29;;;;;;;3.67;2.22;;;19.30;64.90;;;;;;10368998;28;20045;-60
2022/05/09 21:13:30;;;;;;;2.80;2.25;;;19.30;65.00;;;;;;10368758;28;20071;-58
2022/05/09 21:18:31;;;;;;;10.10;2.38;;;19.30;65.20;;;;;;10350644;28;20026;-61
2022/05/09 21:23:32;;;;;;;4.82;2.33;;;19.20;65.20;;;;;;10368377;28;20038;-63
2022/05/09 21:28:33;;;;;;;4.45;2.35;;;19.10;65.20;;;;;;10368187;28;20030;-58
2022/05/09 21:33:34;;;;;;;6.72;2.70;;;19.10;65.40;;;;;;10368163;28;20125;-63
2022/05/09 21:44:00;;;;;;;4.93;2.58;;;19.00;65.60;;;;;;10367933;28;20087;-58
2022/05/09 21:49:01;;;;;;;5.75;2.42;;;19.00;65.70;;;;;;10368001;28;20041;-58
2022/05/09 21:54:01;;;;;;;6.78;2.50;;;18.90;65.70;;;;;;10367634;28;20037;-58
2022/05/09 21:59:03;;;;;;;3.95;2.47;;;18.90;65.80;;;;;;10367593;28;20060;-59
2022/05/09 22:04:07;;;;;;;6.90;2.80;;;18.90;66.00;;;;;;10366919;28;20058;-57
2022/05/09 22:09:11;;;;;;;5.85;2.83;;;18.80;66.00;;;;;;10367217;28;20030;-62
2022/05/09 22:14:12;;;;;;;7.20;3.05;;;18.80;66.10;;;;;;10367105;28;20076;-60
2022/05/09 22:19:13;;;;;;;3.80;2.80;;;18.70;66.80;;;;;;10366769;28;20106;-58
2022/05/09 22:24:14;;;;;;;7.82;3.05;;;18.70;66.20;;;;;;10366677;28;20048;-62
2022/05/09 22:29:28;;;;;;;5.53;2.70;;;18.60;66.30;;;;;;10365676;28;20129;-58
2022/05/09 22:34:31;;;;;;;5.38;2.70;;;18.60;66.40;;;;;;10366419;28;20143;-62
2022/05/09 22:39:37;;;;;;;5.38;2.42;;;18.60;66.50;;;;;;10366183;28;20027;-62
2022/05/09 22:44:44;;;;;;;6.18;2.80;;;18.60;66.60;;;;;;10366187;28;20042;-59
2022/05/09 22:49:46;;;;;;;4.20;2.50;;;18.50;66.60;;;;;;10365759;28;20036;-59
2022/05/09 22:54:46;;;;;;;5.07;2.38;;;18.50;66.60;;;;;;10365865;28;20408;-62
2022/05/09 22:59:47;;;;;;;4.15;2.95;;;18.50;66.70;;;;;;10365724;28;20022;-58
2022/05/09 23:04:48;;;;;;;5.47;2.88;;;18.40;66.70;;;;;;10365290;28;20050;-57
2022/05/09 23:09:48;;;;;;;6.22;2.58;;;18.40;66.70;;;;;;10365276;28;20030;-61
2022/05/09 23:14:51;;;;;;;6.85;2.70;;;18.40;66.70;;;;;;10365311;28;20034;-60
2022/05/09 23:19:52;;;;;;;6.95;2.75;;;18.30;66.80;;;;;;10365078;28;20022;-61
2022/05/09 23:24:55;;;;;;;6.00;2.30;;;18.30;66.80;;;;;;10365056;28;20034;-58
2022/05/09 23:29:58;;;;;;;4.60;2.40;;;18.30;66.80;;;;;;10364908;28;20026;-58
2022/05/09 23:35:00;;;;;;;7.38;2.88;;;18.20;66.80;;;;;;10364992;28;20025;-59
2022/05/09 23:40:02;;;;;;;3.90;2.67;;;18.20;66.80;;;;;;10366007;28;20049;-62
2022/05/09 23:45:03;;;;;;;6.03;2.60;;;18.20;67.50;;;;;;10371579;28;20493;-59
2022/05/09 23:50:04;;;;;;;6.35;2.70;;;18.20;67.00;;;;;;10371572;28;20391;-59
2022/05/09 23:55:06;;;;;;;6.47;2.65;;;18.10;67.00;;;;;;10371154;28;20457;-62
